Airport View

Enter AWOS ICAO identifier for current METAR.

ex. KFNL

KTBN 202356Z AUTO 16013KT 10SM SCT028 SCT036 26/20 A3005 RMK AO2 SLP169 T02560199 10309 20256 57004

21 Sep 2019 00:51

Frequency: 118.7

Phone: 573-596-6959

Other Area AWOS: KLBO - KAIZ - KVIH - KOZS

TAF KCOU 202331Z 2100/2124 14008KT P6SM SCT050 FM210700 17010KT P6SM VCSH BKN060 FM211500 19012G19KT P6SM VCTS OVC025CB FM211600 20013G20KT P6SM VCTS OVC050CB